Historyczne dane pomiarowe

Dodano dane terminowe – wersja testowa.

Dane z okresu 1951-2019

Wersja bazy: 1.34 [2019-03-16, lista zmian], aktualizacja planowana na 2019-04-15

Dane meteo z obszaru Polski uzyskane na podstawie danych udostępnionych przez Instytut Meteorologii i Gospodarki Wodnej – Państwowy Instytut Badawczy.

 

Wybierz Datę:    

       

TemperaturaWilgotnośćWiatrCiśnienieOpadyŚniegCzas trwania zjawisk
 Stacja t tx tn tng RH VA  wxwx mslp ppp RRR   cm mm wxwxwxwxwxwxwx
1961-08-14 14.4 19.7 8.2--- 2.7 0.3---- 0.0------------
1961-08-13 13.6 19.0 12.8--- 8.0 1.3---- 7.4------------
1961-08-12 19.7 24.9 15.4--- 6.3 0.3---- 24.1------------
1961-08-11 25.9 33.0 18.9--- 2.7 2.0---- 5.4------------
1961-08-10 24.7 31.0 17.9--- 1.3 0.7---- 0.0------------
1961-08-09 23.8 29.7 16.3--- 2.7 0.3---- 1.0------------
1961-08-08 22.7 26.1 15.5--- 4.0 1.3---- 0.0------------
1961-08-07 24.5 29.9 19.4--- 1.0 2.7---- 0.0------------
1961-08-06 22.6 28.8 12.4--- 0.7 4.3---- 0.0------------
1961-08-05 18.3 24.1 13.5--- 4.7 0.7---- 0.0------------
1961-08-04 16.6 21.0 13.3--- 4.0 0.7---- 0.0------------
1961-08-03 17.0 24.3 10.1--- 4.7 0.3---- 0.3------------
1961-08-02 17.8 25.1 8.1--- 0.7 0.3---- 0.0------------
1961-08-01 16.0 21.8 11.1--- 3.7 1.3---- 0.0------------
1961-07-31 13.7 18.9 10.7--- 6.7 2.7---- 3.0------------
1961-07-30 12.3 14.7 10.9--- 8.0 2.3---- 9.1------------
1961-07-29 14.8 20.2 12.1--- 7.0 1.0---- 49.6------------
1961-07-28 21.6 28.1 17.0--- 3.3 3.0---- 0.0------------
1961-07-27 21.3 26.3 11.8--- 2.3 3.7---- 0.0------------
1961-07-26 15.0 20.8 9.4--- 5.7 1.7---- 0.0------------
1961-07-25 13.7 17.8 11.0--- 4.0 1.3---- 0.0------------
1961-07-24 15.1 19.2 12.7--- 6.0 0.3---- 0.0------------
1961-07-23 16.7 21.3 10.3--- 4.0 1.0---- 0.0------------
1961-07-22 15.8 20.7 12.8--- 4.3 1.3---- 0.0------------
1961-07-21 15.5 21.7 11.3--- 4.0 1.7---- 11.0------------
1961-07-20 14.4 19.7 9.3--- 7.7 1.3---- 21.0------------
1961-07-19 14.1 21.0 7.1--- 5.0 0.0---- 3.8------------
1961-07-18 15.2 20.8 10.8--- 3.3 0.7---- 0.0------------
1961-07-17 16.3 23.2 13.4--- 5.3 1.3---- 4.0------------
1961-07-16 18.0 25.1 11.3--- 5.7 1.3---- 1.8------------
1961-07-15 19.2 24.9 8.1--- 4.0 4.3---- 0.2------------
1961-07-14 14.7 19.2 12.8--- 5.7 1.0---- 0.4------------
1961-07-13 21.3 28.7 17.3--- 3.7 4.3---- 4.1------------
1961-07-12 20.7 27.9 9.8--- 3.3 2.7---- 0.0------------
1961-07-11 16.9 21.4 8.2--- 4.0 1.7---- 0.0------------
1961-07-10 14.3 20.0 11.0--- 6.0 4.3---- 3.0------------
1961-07-09 15.5 24.3 7.8--- 5.0 1.0---- 3.4------------
1961-07-08 15.2 20.7 10.7--- 3.0 0.3---- 0.0------------
1961-07-07 13.7 19.4 6.4--- 3.0 1.3---- 0.0------------
1961-07-06 12.6 19.2 9.4--- 3.7 2.3---- 0.0------------
1961-07-05 14.9 20.6 12.6--- 8.0 1.3---- 0.5------------
1961-07-04 23.4 31.1 12.4--- 3.0 2.0---- 3.4------------
1961-07-03 21.7 29.7 11.7--- 0.3 0.7---- 0.0------------
1961-07-02 19.8 27.1 10.0--- 0.0 0.3---- 0.0------------
1961-07-01 18.5 24.9 10.2--- 2.0 1.0---- 0.0------------
1961-06-30 17.0 22.2 12.3--- 5.0 1.3---- 0.0------------
1961-06-29 16.0 18.9 6.9--- 4.3 1.3---- 0.0------------
1961-06-28 14.0 25.3 11.1--- 6.3 2.7---- 4.7------------
1961-06-27 25.2 30.6 15.5--- 3.0 2.3---- 6.8------------
1961-06-26 22.5 30.2 15.4--- 3.3 2.7---- 0.0------------
1961-06-25 22.3 29.1 10.0--- 3.0 1.7---- 0.0------------
1961-06-24 19.0 25.6 12.2--- 4.7 3.0---- 0.0------------
1961-06-23 17.7 23.0 12.1--- 6.3 0.7---- 4.8------------
1961-06-22 18.1 24.6 10.9--- 2.7 0.7---- 2.7------------
1961-06-21 17.4 23.7 5.9--- 1.7 0.3---- 0.0------------
1961-06-20 16.0 20.2 13.9--- 2.7 1.3---- 0.0------------
1961-06-19 21.9 28.8 12.8--- 4.0 3.3---- 0.0------------
1961-06-18 17.1 25.7 6.6--- 2.0 1.7---- 0.0------------
1961-06-17 15.4 22.2 7.3--- 1.3 1.7---- 0.0------------
1961-06-16 14.0 19.4 9.3--- 2.7 0.3---- 0.0------------
246.2 ms

 

Źródłem pochodzenia danych jest Instytut Meteorologii i Gospodarki Wodnej – Państwowy Instytut Badawczy. Dane Instytutu Meteorologii i Gospodarki Wodnej – Państwowego Instytutu Badawczego zostały przetworzone.

Dane źródłowe można odnaleźć na stronie https://dane.imgw.pl